sensor_id;sensor_type;location;lat;lon;timestamp;temperature;humidity
14850;DHT22;7517;48.400;11.770;2024-03-17T00:02:05;12.20;73.10
14850;DHT22;7517;48.400;11.770;2024-03-17T00:04:33;14.50;74.40
14850;DHT22;7517;48.400;11.770;2024-03-17T00:07:01;13.20;73.20
14850;DHT22;7517;48.400;11.770;2024-03-17T00:09:29;13.10;73.10
14850;DHT22;7517;48.400;11.770;2024-03-17T00:11:55;13.20;73.00
14850;DHT22;7517;48.400;11.770;2024-03-17T00:14:23;13.20;72.90
14850;DHT22;7517;48.400;11.770;2024-03-17T00:16:53;13.20;72.80
14850;DHT22;7517;48.400;11.770;2024-03-17T00:19:23;13.20;72.80
14850;DHT22;7517;48.400;11.770;2024-03-17T00:21:49;13.20;72.70
14850;DHT22;7517;48.400;11.770;2024-03-17T00:24:19;13.20;72.60
14850;DHT22;7517;48.400;11.770;2024-03-17T00:26:47;13.20;72.70
14850;DHT22;7517;48.400;11.770;2024-03-17T00:29:14;13.20;72.70
14850;DHT22;7517;48.400;11.770;2024-03-17T00:31:42;13.10;72.60
14850;DHT22;7517;48.400;11.770;2024-03-17T00:34:09;13.10;72.70
14850;DHT22;7517;48.400;11.770;2024-03-17T00:36:36;13.20;72.60
14850;DHT22;7517;48.400;11.770;2024-03-17T00:39:02;13.10;72.30
14850;DHT22;7517;48.400;11.770;2024-03-17T00:41:32;13.40;72.30
14850;DHT22;7517;48.400;11.770;2024-03-17T00:43:58;13.20;72.40
14850;DHT22;7517;48.400;11.770;2024-03-17T00:46:26;13.20;72.30
14850;DHT22;7517;48.400;11.770;2024-03-17T00:48:53;13.10;72.30
14850;DHT22;7517;48.400;11.770;2024-03-17T00:51:20;13.10;72.30
14850;DHT22;7517;48.400;11.770;2024-03-17T00:53:46;13.00;72.10
14850;DHT22;7517;48.400;11.770;2024-03-17T00:56:14;13.10;71.80
14850;DHT22;7517;48.400;11.770;2024-03-17T00:58:44;13.00;71.80
14850;DHT22;7517;48.400;11.770;2024-03-17T01:01:17;12.90;72.10
14850;DHT22;7517;48.400;11.770;2024-03-17T01:03:45;13.00;72.30
14850;DHT22;7517;48.400;11.770;2024-03-17T01:06:13;12.90;72.30
14850;DHT22;7517;48.400;11.770;2024-03-17T01:08:39;12.90;72.30
14850;DHT22;7517;48.400;11.770;2024-03-17T01:11:07;13.00;72.20
14850;DHT22;7517;48.400;11.770;2024-03-17T01:13:34;12.90;72.40
14850;DHT22;7517;48.400;11.770;2024-03-17T01:16:08;12.90;72.40
14850;DHT22;7517;48.400;11.770;2024-03-17T01:18:34;12.90;72.10
14850;DHT22;7517;48.400;11.770;2024-03-17T01:21:03;12.90;72.30
14850;DHT22;7517;48.400;11.770;2024-03-17T01:23:30;12.90;72.20
14850;DHT22;7517;48.400;11.770;2024-03-17T01:25:57;12.90;72.20
14850;DHT22;7517;48.400;11.770;2024-03-17T01:28:23;12.80;72.20
14850;DHT22;7517;48.400;11.770;2024-03-17T01:30:52;12.80;72.20
14850;DHT22;7517;48.400;11.770;2024-03-17T01:33:19;12.80;72.30
14850;DHT22;7517;48.400;11.770;2024-03-17T01:35:47;11.30;71.40
14850;DHT22;7517;48.400;11.770;2024-03-17T01:38:13;12.70;72.60
14850;DHT22;7517;48.400;11.770;2024-03-17T01:40:41;12.60;72.40
14850;DHT22;7517;48.400;11.770;2024-03-17T01:43:10;12.90;72.30
14850;DHT22;7517;48.400;11.770;2024-03-17T01:45:38;12.60;72.00
14850;DHT22;7517;48.400;11.770;2024-03-17T01:48:10;12.60;71.90
14850;DHT22;7517;48.400;11.770;2024-03-17T01:50:48;12.60;72.00
14850;DHT22;7517;48.400;11.770;2024-03-17T01:53:16;12.50;71.90
14850;DHT22;7517;48.400;11.770;2024-03-17T01:55:47;12.40;71.70
14850;DHT22;7517;48.400;11.770;2024-03-17T01:58:13;12.40;71.80
14850;DHT22;7517;48.400;11.770;2024-03-17T02:00:41;12.30;72.10
14850;DHT22;7517;48.400;11.770;2024-03-17T02:03:08;12.50;72.00
14850;DHT22;7517;48.400;11.770;2024-03-17T02:05:36;12.20;72.00
14850;DHT22;7517;48.400;11.770;2024-03-17T02:08:05;12.20;72.30
14850;DHT22;7517;48.400;11.770;2024-03-17T02:10:33;12.10;72.20
14850;DHT22;7517;48.400;11.770;2024-03-17T02:12:59;12.10;72.20
14850;DHT22;7517;48.400;11.770;2024-03-17T02:15:29;12.10;72.10
14850;DHT22;7517;48.400;11.770;2024-03-17T02:17:55;12.40;72.30
14850;DHT22;7517;48.400;11.770;2024-03-17T02:20:22;11.90;72.50
14850;DHT22;7517;48.400;11.770;2024-03-17T02:23:11;12.10;72.50
14850;DHT22;7517;48.400;11.770;2024-03-17T02:25:38;11.90;72.60
14850;DHT22;7517;48.400;11.770;2024-03-17T02:28:05;11.90;72.40
14850;DHT22;7517;48.400;11.770;2024-03-17T02:30:32;12.40;72.60
14850;DHT22;7517;48.400;11.770;2024-03-17T02:32:59;11.80;72.20
14850;DHT22;7517;48.400;11.770;2024-03-17T02:35:26;11.80;72.50
14850;DHT22;7517;48.400;11.770;2024-03-17T02:37:52;11.80;72.40
14850;DHT22;7517;48.400;11.770;2024-03-17T02:40:21;12.10;72.90
14850;DHT22;7517;48.400;11.770;2024-03-17T02:42:48;11.80;73.00
14850;DHT22;7517;48.400;11.770;2024-03-17T02:45:16;11.70;73.30
14850;DHT22;7517;48.400;11.770;2024-03-17T02:47:43;11.80;73.40
14850;DHT22;7517;48.400;11.770;2024-03-17T02:50:10;11.80;73.50
14850;DHT22;7517;48.400;11.770;2024-03-17T02:52:38;11.80;73.70
14850;DHT22;7517;48.400;11.770;2024-03-17T02:55:06;11.80;73.80
14850;DHT22;7517;48.400;11.770;2024-03-17T02:57:35;11.90;73.70
14850;DHT22;7517;48.400;11.770;2024-03-17T03:00:03;11.90;73.70
14850;DHT22;7517;48.400;11.770;2024-03-17T03:02:31;11.80;73.60
14850;DHT22;7517;48.400;11.770;2024-03-17T03:04:57;11.90;73.70
14850;DHT22;7517;48.400;11.770;2024-03-17T03:07:24;11.80;73.90
14850;DHT22;7517;48.400;11.770;2024-03-17T03:09:52;11.30;73.70
14850;DHT22;7517;48.400;11.770;2024-03-17T03:12:19;11.90;74.10
14850;DHT22;7517;48.400;11.770;2024-03-17T03:14:48;11.90;74.10
14850;DHT22;7517;48.400;11.770;2024-03-17T03:17:15;12.00;73.90
14850;DHT22;7517;48.400;11.770;2024-03-17T03:19:43;11.90;73.70
14850;DHT22;7517;48.400;11.770;2024-03-17T03:22:10;11.90;73.80
14850;DHT22;7517;48.400;11.770;2024-03-17T03:24:37;12.00;74.00
14850;DHT22;7517;48.400;11.770;2024-03-17T03:27:05;11.90;73.90
14850;DHT22;7517;48.400;11.770;2024-03-17T03:29:32;12.00;73.50
14850;DHT22;7517;48.400;11.770;2024-03-17T03:32:01;12.10;74.20
14850;DHT22;7517;48.400;11.770;2024-03-17T03:34:29;12.00;73.40
14850;DHT22;7517;48.400;11.770;2024-03-17T03:36:56;12.10;73.20
14850;DHT22;7517;48.400;11.770;2024-03-17T03:39:23;12.10;73.20
14850;DHT22;7517;48.400;11.770;2024-03-17T03:41:56;12.10;73.50
14850;DHT22;7517;48.400;11.770;2024-03-17T03:44:24;12.00;73.30
14850;DHT22;7517;48.400;11.770;2024-03-17T03:46:51;12.00;73.50
14850;DHT22;7517;48.400;11.770;2024-03-17T03:49:24;12.40;73.60
14850;DHT22;7517;48.400;11.770;2024-03-17T03:51:55;12.00;73.10
14850;DHT22;7517;48.400;11.770;2024-03-17T03:54:22;12.00;73.20
14850;DHT22;7517;48.400;11.770;2024-03-17T03:56:50;12.00;73.30
14850;DHT22;7517;48.400;11.770;2024-03-17T03:59:21;12.00;73.30
14850;DHT22;7517;48.400;11.770;2024-03-17T04:01:48;11.90;73.20
14850;DHT22;7517;48.400;11.770;2024-03-17T04:04:16;12.00;72.90
14850;DHT22;7517;48.400;11.770;2024-03-17T04:06:45;12.10;72.90
14850;DHT22;7517;48.400;11.770;2024-03-17T04:09:12;11.90;72.80
14850;DHT22;7517;48.400;11.770;2024-03-17T04:11:40;11.90;73.00
14850;DHT22;7517;48.400;11.770;2024-03-17T04:14:07;11.90;72.70
14850;DHT22;7517;48.400;11.770;2024-03-17T04:16:37;11.90;72.70
14850;DHT22;7517;48.400;11.770;2024-03-17T04:19:05;11.80;73.90
14850;DHT22;7517;48.400;11.770;2024-03-17T04:21:34;11.00;72.60
14850;DHT22;7517;48.400;11.770;2024-03-17T04:24:06;11.80;73.30
14850;DHT22;7517;48.400;11.770;2024-03-17T04:26:33;11.80;73.20
14850;DHT22;7517;48.400;11.770;2024-03-17T04:29:01;11.80;73.20
14850;DHT22;7517;48.400;11.770;2024-03-17T04:31:28;11.80;73.30
14850;DHT22;7517;48.400;11.770;2024-03-17T04:33:55;11.80;73.40
14850;DHT22;7517;48.400;11.770;2024-03-17T04:36:22;11.80;73.50
14850;DHT22;7517;48.400;11.770;2024-03-17T04:38:49;11.80;73.70
14850;DHT22;7517;48.400;11.770;2024-03-17T04:41:20;11.70;73.50
14850;DHT22;7517;48.400;11.770;2024-03-17T04:43:47;11.80;73.60
14850;DHT22;7517;48.400;11.770;2024-03-17T04:46:15;11.70;73.60
14850;DHT22;7517;48.400;11.770;2024-03-17T04:48:44;11.70;73.50
14850;DHT22;7517;48.400;11.770;2024-03-17T04:51:15;11.80;73.50
14850;DHT22;7517;48.400;11.770;2024-03-17T04:53:45;11.80;73.90
14850;DHT22;7517;48.400;11.770;2024-03-17T04:56:12;11.80;74.10
14850;DHT22;7517;48.400;11.770;2024-03-17T04:58:41;11.80;73.80
14850;DHT22;7517;48.400;11.770;2024-03-17T05:01:09;11.80;73.60
14850;DHT22;7517;48.400;11.770;2024-03-17T05:03:38;11.80;73.80
14850;DHT22;7517;48.400;11.770;2024-03-17T05:06:06;11.90;73.50
14850;DHT22;7517;48.400;11.770;2024-03-17T05:08:34;11.90;73.40
14850;DHT22;7517;48.400;11.770;2024-03-17T05:11:02;11.90;73.70
14850;DHT22;7517;48.400;11.770;2024-03-17T05:13:32;11.90;73.70
14850;DHT22;7517;48.400;11.770;2024-03-17T05:16:02;11.90;74.40
14850;DHT22;7517;48.400;11.770;2024-03-17T05:18:30;11.80;73.50
14850;DHT22;7517;48.400;11.770;2024-03-17T05:20:58;11.90;73.40
14850;DHT22;7517;48.400;11.770;2024-03-17T05:23:27;11.80;73.20
14850;DHT22;7517;48.400;11.770;2024-03-17T05:25:56;11.90;73.10
14850;DHT22;7517;48.400;11.770;2024-03-17T05:28:28;11.80;73.30
14850;DHT22;7517;48.400;11.770;2024-03-17T05:30:56;11.80;73.20
14850;DHT22;7517;48.400;11.770;2024-03-17T05:33:26;11.80;73.10
14850;DHT22;7517;48.400;11.770;2024-03-17T05:35:55;11.90;73.20
14850;DHT22;7517;48.400;11.770;2024-03-17T05:38:24;11.80;73.10
14850;DHT22;7517;48.400;11.770;2024-03-17T05:40:54;11.80;73.30
14850;DHT22;7517;48.400;11.770;2024-03-17T05:43:22;11.80;73.30
14850;DHT22;7517;48.400;11.770;2024-03-17T05:45:50;11.70;73.30
14850;DHT22;7517;48.400;11.770;2024-03-17T05:48:18;11.80;73.50
14850;DHT22;7517;48.400;11.770;2024-03-17T05:50:47;12.60;74.00
14850;DHT22;7517;48.400;11.770;2024-03-17T05:53:15;11.80;73.50
14850;DHT22;7517;48.400;11.770;2024-03-17T05:55:44;12.90;74.10
14850;DHT22;7517;48.400;11.770;2024-03-17T05:58:11;11.80;73.50
14850;DHT22;7517;48.400;11.770;2024-03-17T06:00:39;11.70;73.70
14850;DHT22;7517;48.400;11.770;2024-03-17T06:03:07;11.70;73.40
14850;DHT22;7517;48.400;11.770;2024-03-17T06:05:36;12.00;73.60
14850;DHT22;7517;48.400;11.770;2024-03-17T06:08:07;11.80;73.60
14850;DHT22;7517;48.400;11.770;2024-03-17T06:10:37;11.40;73.40
14850;DHT22;7517;48.400;11.770;2024-03-17T06:13:09;12.20;73.80
14850;DHT22;7517;48.400;11.770;2024-03-17T06:15:41;11.80;73.50
14850;DHT22;7517;48.400;11.770;2024-03-17T06:18:10;11.80;73.90
14850;DHT22;7517;48.400;11.770;2024-03-17T06:20:40;11.80;73.90
14850;DHT22;7517;48.400;11.770;2024-03-17T06:23:10;13.00;74.80
14850;DHT22;7517;48.400;11.770;2024-03-17T06:25:40;11.80;74.10
14850;DHT22;7517;48.400;11.770;2024-03-17T06:28:08;12.00;74.10
14850;DHT22;7517;48.400;11.770;2024-03-17T06:30:39;12.20;74.40
14850;DHT22;7517;48.400;11.770;2024-03-17T06:33:06;11.80;74.30
14850;DHT22;7517;48.400;11.770;2024-03-17T06:35:36;11.90;74.60
14850;DHT22;7517;48.400;11.770;2024-03-17T06:38:08;12.80;75.30
14850;DHT22;7517;48.400;11.770;2024-03-17T06:40:38;12.00;75.40
14850;DHT22;7517;48.400;11.770;2024-03-17T06:43:05;12.00;74.90
14850;DHT22;7517;48.400;11.770;2024-03-17T06:45:34;12.10;74.90
14850;DHT22;7517;48.400;11.770;2024-03-17T06:48:01;12.10;75.10
14850;DHT22;7517;48.400;11.770;2024-03-17T06:50:32;12.20;75.00
14850;DHT22;7517;48.400;11.770;2024-03-17T06:52:59;12.30;75.10
14850;DHT22;7517;48.400;11.770;2024-03-17T06:55:42;12.40;74.80
14850;DHT22;7517;48.400;11.770;2024-03-17T06:58:12;12.50;74.70
14850;DHT22;7517;48.400;11.770;2024-03-17T07:00:53;10.90;73.50
14850;DHT22;7517;48.400;11.770;2024-03-17T07:03:23;12.80;74.30
14850;DHT22;7517;48.400;11.770;2024-03-17T07:05:59;12.90;74.10
14850;DHT22;7517;48.400;11.770;2024-03-17T07:08:29;13.00;74.90
14850;DHT22;7517;48.400;11.770;2024-03-17T07:11:00;13.10;74.20
14850;DHT22;7517;48.400;11.770;2024-03-17T07:13:30;13.20;74.00
14850;DHT22;7517;48.400;11.770;2024-03-17T07:15:59;13.30;73.80
14850;DHT22;7517;48.400;11.770;2024-03-17T07:18:27;13.40;73.70
14850;DHT22;7517;48.400;11.770;2024-03-17T07:20:59;13.50;73.80
14850;DHT22;7517;48.400;11.770;2024-03-17T07:23:33;13.50;73.70
14850;DHT22;7517;48.400;11.770;2024-03-17T07:26:04;13.70;73.50
14850;DHT22;7517;48.400;11.770;2024-03-17T07:28:35;13.80;73.30
14850;DHT22;7517;48.400;11.770;2024-03-17T07:31:08;13.80;73.10
14850;DHT22;7517;48.400;11.770;2024-03-17T07:33:45;14.00;72.90
14850;DHT22;7517;48.400;11.770;2024-03-17T07:36:24;14.10;72.90
14850;DHT22;7517;48.400;11.770;2024-03-17T07:39:15;14.20;72.60
14850;DHT22;7517;48.400;11.770;2024-03-17T07:41:51;14.30;72.20
14850;DHT22;7517;48.400;11.770;2024-03-17T07:44:22;14.40;72.20
14850;DHT22;7517;48.400;11.770;2024-03-17T07:46:49;14.50;71.80
14850;DHT22;7517;48.400;11.770;2024-03-17T07:49:16;14.60;71.60
14850;DHT22;7517;48.400;11.770;2024-03-17T07:51:44;14.70;71.20
14850;DHT22;7517;48.400;11.770;2024-03-17T07:54:11;14.80;70.90
14850;DHT22;7517;48.400;11.770;2024-03-17T07:56:39;14.80;70.80
14850;DHT22;7517;48.400;11.770;2024-03-17T07:59:08;14.90;70.80
14850;DHT22;7517;48.400;11.770;2024-03-17T08:01:37;15.00;70.70
14850;DHT22;7517;48.400;11.770;2024-03-17T08:04:05;15.10;70.70
14850;DHT22;7517;48.400;11.770;2024-03-17T08:06:32;15.10;70.40
14850;DHT22;7517;48.400;11.770;2024-03-17T08:08:59;15.20;70.20
14850;DHT22;7517;48.400;11.770;2024-03-17T08:11:27;15.20;70.10
14850;DHT22;7517;48.400;11.770;2024-03-17T08:13:54;15.30;70.00
14850;DHT22;7517;48.400;11.770;2024-03-17T08:16:22;15.30;70.10
14850;DHT22;7517;48.400;11.770;2024-03-17T08:18:51;15.40;69.90
14850;DHT22;7517;48.400;11.770;2024-03-17T08:21:18;15.40;69.40
14850;DHT22;7517;48.400;11.770;2024-03-17T08:23:46;15.40;69.30
14850;DHT22;7517;48.400;11.770;2024-03-17T08:26:13;15.50;69.30
14850;DHT22;7517;48.400;11.770;2024-03-17T08:28:42;15.50;69.40
14850;DHT22;7517;48.400;11.770;2024-03-17T08:31:09;15.60;69.10
14850;DHT22;7517;48.400;11.770;2024-03-17T08:33:39;15.60;68.90
14850;DHT22;7517;48.400;11.770;2024-03-17T08:36:08;15.70;68.30
14850;DHT22;7517;48.400;11.770;2024-03-17T08:38:37;15.80;68.30
14850;DHT22;7517;48.400;11.770;2024-03-17T08:41:07;15.80;68.50
14850;DHT22;7517;48.400;11.770;2024-03-17T08:43:36;15.90;68.60
14850;DHT22;7517;48.400;11.770;2024-03-17T08:46:06;16.10;68.60
14850;DHT22;7517;48.400;11.770;2024-03-17T08:48:35;16.20;68.40
14850;DHT22;7517;48.400;11.770;2024-03-17T08:51:07;16.30;68.30
14850;DHT22;7517;48.400;11.770;2024-03-17T08:53:36;16.50;68.10
14850;DHT22;7517;48.400;11.770;2024-03-17T08:56:05;16.60;68.00
14850;DHT22;7517;48.400;11.770;2024-03-17T08:58:34;16.70;67.30
14850;DHT22;7517;48.400;11.770;2024-03-17T09:01:06;16.80;66.60
14850;DHT22;7517;48.400;11.770;2024-03-17T09:03:34;17.00;66.40
14850;DHT22;7517;48.400;11.770;2024-03-17T09:06:02;17.00;66.70
14850;DHT22;7517;48.400;11.770;2024-03-17T09:08:31;17.10;67.00
14850;DHT22;7517;48.400;11.770;2024-03-17T09:10:59;17.30;66.80
14850;DHT22;7517;48.400;11.770;2024-03-17T09:13:26;17.40;66.60
14850;DHT22;7517;48.400;11.770;2024-03-17T09:15:54;17.60;66.60
14850;DHT22;7517;48.400;11.770;2024-03-17T09:18:25;17.70;66.20
14850;DHT22;7517;48.400;11.770;2024-03-17T09:21:04;17.90;65.80
14850;DHT22;7517;48.400;11.770;2024-03-17T09:23:34;18.10;64.40
14850;DHT22;7517;48.400;11.770;2024-03-17T09:26:03;18.20;65.00
14850;DHT22;7517;48.400;11.770;2024-03-17T09:28:34;18.40;65.10
14850;DHT22;7517;48.400;11.770;2024-03-17T09:31:03;18.60;65.10
14850;DHT22;7517;48.400;11.770;2024-03-17T09:33:34;18.80;65.20
14850;DHT22;7517;48.400;11.770;2024-03-17T09:36:03;19.00;64.30
14850;DHT22;7517;48.400;11.770;2024-03-17T09:38:34;19.20;64.40
14850;DHT22;7517;48.400;11.770;2024-03-17T09:41:03;19.40;63.80
14850;DHT22;7517;48.400;11.770;2024-03-17T09:43:32;19.60;63.50
14850;DHT22;7517;48.400;11.770;2024-03-17T09:46:03;19.80;62.50
14850;DHT22;7517;48.400;11.770;2024-03-17T09:48:31;20.10;61.50
14850;DHT22;7517;48.400;11.770;2024-03-17T09:50:59;20.30;61.20
14850;DHT22;7517;48.400;11.770;2024-03-17T09:53:29;20.50;61.20
14850;DHT22;7517;48.400;11.770;2024-03-17T09:56:01;20.70;59.90
14850;DHT22;7517;48.400;11.770;2024-03-17T09:58:36;20.90;59.00
14850;DHT22;7517;48.400;11.770;2024-03-17T10:01:04;21.20;59.50
14850;DHT22;7517;48.400;11.770;2024-03-17T10:03:44;21.40;59.60
14850;DHT22;7517;48.400;11.770;2024-03-17T10:06:17;21.70;58.30
14850;DHT22;7517;48.400;11.770;2024-03-17T10:08:47;22.00;59.00
14850;DHT22;7517;48.400;11.770;2024-03-17T10:11:19;22.30;58.20
14850;DHT22;7517;48.400;11.770;2024-03-17T10:13:58;22.50;57.60
14850;DHT22;7517;48.400;11.770;2024-03-17T10:16:28;22.80;55.30
14850;DHT22;7517;48.400;11.770;2024-03-17T10:19:14;23.00;55.90
14850;DHT22;7517;48.400;11.770;2024-03-17T10:21:44;23.10;54.20
14850;DHT22;7517;48.400;11.770;2024-03-17T10:24:20;23.10;54.40
14850;DHT22;7517;48.400;11.770;2024-03-17T10:26:51;23.10;53.40
14850;DHT22;7517;48.400;11.770;2024-03-17T10:29:21;23.00;53.40
14850;DHT22;7517;48.400;11.770;2024-03-17T10:31:52;22.90;53.60
14850;DHT22;7517;48.400;11.770;2024-03-17T10:34:20;22.80;53.10
14850;DHT22;7517;48.400;11.770;2024-03-17T10:36:50;22.70;52.60
14850;DHT22;7517;48.400;11.770;2024-03-17T10:39:25;22.60;52.70
14850;DHT22;7517;48.400;11.770;2024-03-17T10:42:01;22.40;52.20
14850;DHT22;7517;48.400;11.770;2024-03-17T10:44:29;22.30;52.00
14850;DHT22;7517;48.400;11.770;2024-03-17T10:47:00;22.20;52.90
14850;DHT22;7517;48.400;11.770;2024-03-17T10:49:36;22.00;52.70
14850;DHT22;7517;48.400;11.770;2024-03-17T10:52:06;21.90;52.30
14850;DHT22;7517;48.400;11.770;2024-03-17T10:54:34;21.80;52.20
14850;DHT22;7517;48.400;11.770;2024-03-17T10:57:13;21.70;52.60
14850;DHT22;7517;48.400;11.770;2024-03-17T10:59:49;21.70;53.10
14850;DHT22;7517;48.400;11.770;2024-03-17T11:02:24;21.60;53.20
14850;DHT22;7517;48.400;11.770;2024-03-17T11:04:55;21.60;52.80
14850;DHT22;7517;48.400;11.770;2024-03-17T11:07:24;21.50;53.00
14850;DHT22;7517;48.400;11.770;2024-03-17T11:09:54;21.40;52.90
14850;DHT22;7517;48.400;11.770;2024-03-17T11:12:45;21.40;53.10
14850;DHT22;7517;48.400;11.770;2024-03-17T11:15:39;21.30;53.50
14850;DHT22;7517;48.400;11.770;2024-03-17T11:18:29;21.20;52.80
14850;DHT22;7517;48.400;11.770;2024-03-17T11:21:02;21.20;53.00
14850;DHT22;7517;48.400;11.770;2024-03-17T11:23:36;21.10;52.90
14850;DHT22;7517;48.400;11.770;2024-03-17T11:26:05;21.10;53.00
14850;DHT22;7517;48.400;11.770;2024-03-17T11:28:48;21.00;52.70
14850;DHT22;7517;48.400;11.770;2024-03-17T11:31:40;21.00;53.00
14850;DHT22;7517;48.400;11.770;2024-03-17T11:34:34;21.00;52.70
14850;DHT22;7517;48.400;11.770;2024-03-17T11:37:03;21.00;52.60
14850;DHT22;7517;48.400;11.770;2024-03-17T11:39:47;21.00;53.20
14850;DHT22;7517;48.400;11.770;2024-03-17T11:42:30;21.10;52.90
14850;DHT22;7517;48.400;11.770;2024-03-17T11:45:04;21.10;53.80
14850;DHT22;7517;48.400;11.770;2024-03-17T11:47:39;21.10;53.20
14850;DHT22;7517;48.400;11.770;2024-03-17T11:50:08;21.10;53.10
14850;DHT22;7517;48.400;11.770;2024-03-17T11:52:39;21.20;53.10
14850;DHT22;7517;48.400;11.770;2024-03-17T11:55:18;21.20;53.10
14850;DHT22;7517;48.400;11.770;2024-03-17T11:57:45;21.20;52.60
14850;DHT22;7517;48.400;11.770;2024-03-17T12:00:23;21.20;52.60
14850;DHT22;7517;48.400;11.770;2024-03-17T12:02:52;21.20;52.30
14850;DHT22;7517;48.400;11.770;2024-03-17T12:05:19;21.20;52.80
14850;DHT22;7517;48.400;11.770;2024-03-17T12:07:47;21.20;52.90
14850;DHT22;7517;48.400;11.770;2024-03-17T12:10:13;21.10;52.90
14850;DHT22;7517;48.400;11.770;2024-03-17T12:12:47;21.10;52.70
14850;DHT22;7517;48.400;11.770;2024-03-17T12:15:17;21.10;53.10
14850;DHT22;7517;48.400;11.770;2024-03-17T12:17:46;21.10;52.50
14850;DHT22;7517;48.400;11.770;2024-03-17T12:20:20;21.10;52.00
14850;DHT22;7517;48.400;11.770;2024-03-17T12:22:47;21.00;52.00
14850;DHT22;7517;48.400;11.770;2024-03-17T12:25:18;20.90;52.20
14850;DHT22;7517;48.400;11.770;2024-03-17T12:27:46;20.80;52.20
14850;DHT22;7517;48.400;11.770;2024-03-17T12:30:15;20.70;52.10
14850;DHT22;7517;48.400;11.770;2024-03-17T12:32:43;20.60;52.00
14850;DHT22;7517;48.400;11.770;2024-03-17T12:35:17;20.60;52.00
14850;DHT22;7517;48.400;11.770;2024-03-17T12:37:44;20.50;52.20
14850;DHT22;7517;48.400;11.770;2024-03-17T12:40:18;20.50;53.20
14850;DHT22;7517;48.400;11.770;2024-03-17T12:42:48;20.50;52.10
14850;DHT22;7517;48.400;11.770;2024-03-17T12:45:19;20.40;52.00
14850;DHT22;7517;48.400;11.770;2024-03-17T12:47:48;20.40;52.00
14850;DHT22;7517;48.400;11.770;2024-03-17T12:50:17;20.30;51.80
14850;DHT22;7517;48.400;11.770;2024-03-17T12:52:52;20.20;51.60
14850;DHT22;7517;48.400;11.770;2024-03-17T12:55:21;20.10;52.10
14850;DHT22;7517;48.400;11.770;2024-03-17T12:58:07;20.10;52.90
14850;DHT22;7517;48.400;11.770;2024-03-17T13:01:00;20.00;52.50
14850;DHT22;7517;48.400;11.770;2024-03-17T13:03:30;19.90;52.50
14850;DHT22;7517;48.400;11.770;2024-03-17T13:06:01;19.90;53.20
14850;DHT22;7517;48.400;11.770;2024-03-17T13:08:29;19.80;53.10
14850;DHT22;7517;48.400;11.770;2024-03-17T13:10:57;19.80;53.00
14850;DHT22;7517;48.400;11.770;2024-03-17T13:13:25;19.80;53.10
14850;DHT22;7517;48.400;11.770;2024-03-17T13:15:52;19.80;52.70
14850;DHT22;7517;48.400;11.770;2024-03-17T13:18:20;19.80;52.80
14850;DHT22;7517;48.400;11.770;2024-03-17T13:20:47;19.80;52.70
14850;DHT22;7517;48.400;11.770;2024-03-17T13:23:18;19.80;52.70
14850;DHT22;7517;48.400;11.770;2024-03-17T13:25:47;19.80;52.20
14850;DHT22;7517;48.400;11.770;2024-03-17T13:28:14;19.80;52.30
14850;DHT22;7517;48.400;11.770;2024-03-17T13:30:42;19.80;52.30
14850;DHT22;7517;48.400;11.770;2024-03-17T13:33:10;19.80;52.30
14850;DHT22;7517;48.400;11.770;2024-03-17T13:35:39;19.80;52.30
14850;DHT22;7517;48.400;11.770;2024-03-17T13:38:07;19.80;53.00
14850;DHT22;7517;48.400;11.770;2024-03-17T13:40:38;19.80;52.70
14850;DHT22;7517;48.400;11.770;2024-03-17T13:43:09;19.90;52.40
14850;DHT22;7517;48.400;11.770;2024-03-17T13:45:38;20.00;52.30
14850;DHT22;7517;48.400;11.770;2024-03-17T13:48:07;20.00;52.00
14850;DHT22;7517;48.400;11.770;2024-03-17T13:50:36;20.10;52.00
14850;DHT22;7517;48.400;11.770;2024-03-17T13:53:05;20.10;51.90
14850;DHT22;7517;48.400;11.770;2024-03-17T13:55:32;20.10;52.20
14850;DHT22;7517;48.400;11.770;2024-03-17T13:58:02;20.10;52.10
14850;DHT22;7517;48.400;11.770;2024-03-17T14:00:31;20.20;51.80
14850;DHT22;7517;48.400;11.770;2024-03-17T14:03:01;20.20;52.00
14850;DHT22;7517;48.400;11.770;2024-03-17T14:05:29;20.30;52.00
14850;DHT22;7517;48.400;11.770;2024-03-17T14:07:58;20.30;51.90
14850;DHT22;7517;48.400;11.770;2024-03-17T14:10:25;20.30;51.80
14850;DHT22;7517;48.400;11.770;2024-03-17T14:12:53;20.30;51.70
14850;DHT22;7517;48.400;11.770;2024-03-17T14:15:21;20.30;51.90
14850;DHT22;7517;48.400;11.770;2024-03-17T14:17:49;20.30;51.70
14850;DHT22;7517;48.400;11.770;2024-03-17T14:20:17;20.30;51.60
14850;DHT22;7517;48.400;11.770;2024-03-17T14:22:46;20.30;51.50
14850;DHT22;7517;48.400;11.770;2024-03-17T14:25:19;20.30;51.50
14850;DHT22;7517;48.400;11.770;2024-03-17T14:27:47;20.30;51.50
14850;DHT22;7517;48.400;11.770;2024-03-17T14:30:16;20.20;51.70
14850;DHT22;7517;48.400;11.770;2024-03-17T14:32:46;20.20;52.10
14850;DHT22;7517;48.400;11.770;2024-03-17T14:35:15;20.20;52.00
14850;DHT22;7517;48.400;11.770;2024-03-17T14:37:44;20.20;52.10
14850;DHT22;7517;48.400;11.770;2024-03-17T14:40:14;20.20;52.00
14850;DHT22;7517;48.400;11.770;2024-03-17T14:42:47;20.20;52.40
14850;DHT22;7517;48.400;11.770;2024-03-17T14:45:15;20.10;51.60
14850;DHT22;7517;48.400;11.770;2024-03-17T14:47:42;20.20;51.50
14850;DHT22;7517;48.400;11.770;2024-03-17T14:50:11;20.10;51.70
14850;DHT22;7517;48.400;11.770;2024-03-17T14:52:39;20.10;51.70
14850;DHT22;7517;48.400;11.770;2024-03-17T14:55:08;20.00;51.70
14850;DHT22;7517;48.400;11.770;2024-03-17T14:57:36;20.00;51.70
14850;DHT22;7517;48.400;11.770;2024-03-17T15:00:06;19.90;51.60
14850;DHT22;7517;48.400;11.770;2024-03-17T15:02:41;19.90;51.70
14850;DHT22;7517;48.400;11.770;2024-03-17T15:05:10;19.90;51.90
14850;DHT22;7517;48.400;11.770;2024-03-17T15:07:37;19.80;52.00
14850;DHT22;7517;48.400;11.770;2024-03-17T15:10:05;19.70;52.00
14850;DHT22;7517;48.400;11.770;2024-03-17T15:12:34;19.70;51.90
14850;DHT22;7517;48.400;11.770;2024-03-17T15:15:01;19.70;52.20
14850;DHT22;7517;48.400;11.770;2024-03-17T15:17:28;19.60;52.50
14850;DHT22;7517;48.400;11.770;2024-03-17T15:19:56;19.60;52.90
14850;DHT22;7517;48.400;11.770;2024-03-17T15:22:25;19.60;53.10
14850;DHT22;7517;48.400;11.770;2024-03-17T15:24:52;19.50;52.90
14850;DHT22;7517;48.400;11.770;2024-03-17T15:27:19;19.50;52.90
14850;DHT22;7517;48.400;11.770;2024-03-17T15:29:46;19.50;52.70
14850;DHT22;7517;48.400;11.770;2024-03-17T15:32:13;19.50;52.70
14850;DHT22;7517;48.400;11.770;2024-03-17T15:34:42;19.40;52.50
14850;DHT22;7517;48.400;11.770;2024-03-17T15:37:10;19.40;52.50
14850;DHT22;7517;48.400;11.770;2024-03-17T15:39:39;19.30;52.60
14850;DHT22;7517;48.400;11.770;2024-03-17T15:42:06;19.30;52.70
14850;DHT22;7517;48.400;11.770;2024-03-17T15:44:36;19.20;52.90
14850;DHT22;7517;48.400;11.770;2024-03-17T15:47:04;19.20;53.00